sensor_id;sensor_type;location;lat;lon;timestamp;pressure;altitude;pressure_sealevel;temperature;humidity
52343;BME280;38277;51.972;4.624;2022-09-09T00:03:25;100900.0;;;17.0;77.0
52343;BME280;38277;51.972;4.624;2022-09-09T00:09:08;100890.0;;;17.0;77.5
52343;BME280;38277;51.972;4.624;2022-09-09T00:12:37;100890.0;;;17.0;77.5
52343;BME280;38277;51.972;4.624;2022-09-09T00:17:07;100880.0;;;16.9;77.5
52343;BME280;38277;51.972;4.624;2022-09-09T00:21:25;100890.0;;;16.9;77.5
52343;BME280;38277;51.972;4.624;2022-09-09T00:26:45;100880.0;;;16.9;78.0
52343;BME280;38277;51.972;4.624;2022-09-09T00:30:46;100880.0;;;16.9;78.0
52343;BME280;38277;51.972;4.624;2022-09-09T00:35:04;100870.0;;;16.8;78.0
52343;BME280;38277;51.972;4.624;2022-09-09T00:39:31;100870.0;;;16.8;78.5
52343;BME280;38277;51.972;4.624;2022-09-09T00:43:56;100860.0;;;16.8;78.5
52343;BME280;38277;51.972;4.624;2022-09-09T00:48:22;100860.0;;;16.7;78.5
52343;BME280;38277;51.972;4.624;2022-09-09T00:54:15;100850.0;;;16.7;79.0
52343;BME280;38277;51.972;4.624;2022-09-09T00:57:36;100850.0;;;16.7;79.0
52343;BME280;38277;51.972;4.624;2022-09-09T01:02:59;100850.0;;;16.7;79.0
52343;BME280;38277;51.972;4.624;2022-09-09T01:06:35;100860.0;;;16.6;79.0
52343;BME280;38277;51.972;4.624;2022-09-09T01:11:25;100860.0;;;16.6;79.5
52343;BME280;38277;51.972;4.624;2022-09-09T01:15:38;100850.0;;;16.6;79.5
52343;BME280;38277;51.972;4.624;2022-09-09T01:21:18;100840.0;;;16.6;79.5
52343;BME280;38277;51.972;4.624;2022-09-09T01:25:01;100840.0;;;16.6;80.0
52343;BME280;38277;51.972;4.624;2022-09-09T01:28:59;100840.0;;;16.7;80.0
52343;BME280;38277;51.972;4.624;2022-09-09T01:33:39;100830.0;;;16.7;80.0
52343;BME280;38277;51.972;4.624;2022-09-09T01:38:34;100820.0;;;16.7;80.0
52343;BME280;38277;51.972;4.624;2022-09-09T01:42:18;100830.0;;;16.7;79.5
52343;BME280;38277;51.972;4.624;2022-09-09T01:46:48;100840.0;;;16.7;79.5
52343;BME280;38277;51.972;4.624;2022-09-09T01:51:38;100830.0;;;16.7;79.5
52343;BME280;38277;51.972;4.624;2022-09-09T01:57:00;100820.0;;;16.7;79.5
52343;BME280;38277;51.972;4.624;2022-09-09T02:00:46;100830.0;;;16.7;79.5
52343;BME280;38277;51.972;4.624;2022-09-09T02:09:37;100810.0;;;16.6;79.5
52343;BME280;38277;51.972;4.624;2022-09-09T02:14:48;100810.0;;;16.6;79.5
52343;BME280;38277;51.972;4.624;2022-09-09T02:18:57;100810.0;;;16.6;79.5
52343;BME280;38277;51.972;4.624;2022-09-09T02:23:09;100810.0;;;16.6;79.5
52343;BME280;38277;51.972;4.624;2022-09-09T02:27:37;100810.0;;;16.6;79.5
52343;BME280;38277;51.972;4.624;2022-09-09T02:32:52;100800.0;;;16.6;79.5
52343;BME280;38277;51.972;4.624;2022-09-09T02:36:46;100800.0;;;16.6;79.5
52343;BME280;38277;51.972;4.624;2022-09-09T02:40:56;100780.0;;;16.6;79.5
52343;BME280;38277;51.972;4.624;2022-09-09T02:45:23;100780.0;;;16.6;79.5
52343;BME280;38277;51.972;4.624;2022-09-09T02:51:06;100780.0;;;16.5;79.5
52343;BME280;38277;51.972;4.624;2022-09-09T02:54:31;100770.0;;;16.5;79.5
52343;BME280;38277;51.972;4.624;2022-09-09T02:59:09;100790.0;;;16.5;79.5
52343;BME280;38277;51.972;4.624;2022-09-09T03:03:41;100780.0;;;16.4;79.5
52343;BME280;38277;51.972;4.624;2022-09-09T03:08:33;100780.0;;;16.4;79.5
52343;BME280;38277;51.972;4.624;2022-09-09T03:12:18;100770.0;;;16.4;79.5
52343;BME280;38277;51.972;4.624;2022-09-09T03:16:57;100780.0;;;16.4;80.0
52343;BME280;38277;51.972;4.624;2022-09-09T03:21:26;100770.0;;;16.3;80.0
52343;BME280;38277;51.972;4.624;2022-09-09T03:26:44;100780.0;;;16.3;80.0
52343;BME280;38277;51.972;4.624;2022-09-09T03:30:36;100770.0;;;16.3;80.0
52343;BME280;38277;51.972;4.624;2022-09-09T03:35:09;100770.0;;;16.3;80.0
52343;BME280;38277;51.972;4.624;2022-09-09T03:39:25;100760.0;;;16.3;80.0
52343;BME280;38277;51.972;4.624;2022-09-09T03:44:59;100770.0;;;16.3;80.0
52343;BME280;38277;51.972;4.624;2022-09-09T03:48:24;100780.0;;;16.3;80.0
52343;BME280;38277;51.972;4.624;2022-09-09T03:53:10;100780.0;;;16.3;80.0
52343;BME280;38277;51.972;4.624;2022-09-09T03:57:45;100780.0;;;16.3;80.0
52343;BME280;38277;51.972;4.624;2022-09-09T04:02:53;100770.0;;;16.3;80.0
52343;BME280;38277;51.972;4.624;2022-09-09T04:06:45;100770.0;;;16.3;80.0
52343;BME280;38277;51.972;4.624;2022-09-09T04:11:10;100760.0;;;16.3;80.0
52343;BME280;38277;51.972;4.624;2022-09-09T04:15:17;100760.0;;;16.3;79.5
52343;BME280;38277;51.972;4.624;2022-09-09T04:19:54;100750.0;;;16.3;79.5
52343;BME280;38277;51.972;4.624;2022-09-09T04:24:31;100750.0;;;16.3;79.5
52343;BME280;38277;51.972;4.624;2022-09-09T04:29:38;100740.0;;;16.3;79.5
52343;BME280;38277;51.972;4.624;2022-09-09T04:33:40;100740.0;;;16.2;79.5
52343;BME280;38277;51.972;4.624;2022-09-09T04:38:32;100750.0;;;16.3;79.5
52343;BME280;38277;51.972;4.624;2022-09-09T04:42:19;100740.0;;;16.2;80.0
52343;BME280;38277;51.972;4.624;2022-09-09T04:46:54;100730.0;;;16.2;80.0
52343;BME280;38277;51.972;4.624;2022-09-09T04:51:31;100730.0;;;16.2;80.0
52343;BME280;38277;51.972;4.624;2022-09-09T04:56:54;100730.0;;;16.2;80.0
52343;BME280;38277;51.972;4.624;2022-09-09T05:00:22;100730.0;;;16.2;80.5
52343;BME280;38277;51.972;4.624;2022-09-09T05:04:50;100730.0;;;16.2;80.5
52343;BME280;38277;51.972;4.624;2022-09-09T05:09:30;100730.0;;;16.2;80.5
52343;BME280;38277;51.972;4.624;2022-09-09T05:14:58;100730.0;;;16.2;81.0
52343;BME280;38277;51.972;4.624;2022-09-09T05:18:38;100730.0;;;16.2;81.0
52343;BME280;38277;51.972;4.624;2022-09-09T05:23:05;100720.0;;;16.2;81.0
52343;BME280;38277;51.972;4.624;2022-09-09T05:27:18;100720.0;;;16.3;81.0
52343;BME280;38277;51.972;4.624;2022-09-09T05:32:55;100720.0;;;16.3;81.5
52343;BME280;38277;51.972;4.624;2022-09-09T05:36:28;100720.0;;;16.3;81.5
52343;BME280;38277;51.972;4.624;2022-09-09T05:41:42;100710.0;;;16.4;81.5
52343;BME280;38277;51.972;4.624;2022-09-09T05:45:29;100720.0;;;16.5;81.5
52343;BME280;38277;51.972;4.624;2022-09-09T05:50:38;100720.0;;;16.7;81.0
52343;BME280;38277;51.972;4.624;2022-09-09T05:54:24;100730.0;;;16.8;80.5
52343;BME280;38277;51.972;4.624;2022-09-09T05:58:49;100730.0;;;17.0;80.0
52343;BME280;38277;51.972;4.624;2022-09-09T06:03:42;100720.0;;;17.1;79.5
52343;BME280;38277;51.972;4.624;2022-09-09T06:08:41;100730.0;;;17.3;78.5
52343;BME280;38277;51.972;4.624;2022-09-09T06:12:26;100730.0;;;17.4;78.0
52343;BME280;38277;51.972;4.624;2022-09-09T06:16:52;100730.0;;;17.5;77.5
52343;BME280;38277;51.972;4.624;2022-09-09T06:21:20;100730.0;;;17.6;77.0
52343;BME280;38277;51.972;4.624;2022-09-09T06:26:57;100730.0;;;17.7;76.5
52343;BME280;38277;51.972;4.624;2022-09-09T06:30:41;100730.0;;;17.7;76.5
52343;BME280;38277;51.972;4.624;2022-09-09T06:34:53;100730.0;;;17.9;76.0
52343;BME280;38277;51.972;4.624;2022-09-09T06:39:24;100730.0;;;18.1;75.0
52343;BME280;38277;51.972;4.624;2022-09-09T06:44:50;100730.0;;;18.3;74.0
52343;BME280;38277;51.972;4.624;2022-09-09T06:48:20;100730.0;;;18.3;74.0
52343;BME280;38277;51.972;4.624;2022-09-09T06:53:57;100740.0;;;18.3;73.5
52343;BME280;38277;51.972;4.624;2022-09-09T06:57:18;100740.0;;;18.4;73.5
52343;BME280;38277;51.972;4.624;2022-09-09T07:02:52;100740.0;;;18.4;73.0
52343;BME280;38277;51.972;4.624;2022-09-09T07:06:24;100740.0;;;18.5;72.0
52343;BME280;38277;51.972;4.624;2022-09-09T07:11:02;100730.0;;;18.5;72.0
52343;BME280;38277;51.972;4.624;2022-09-09T07:15:38;100730.0;;;18.6;71.5
52343;BME280;38277;51.972;4.624;2022-09-09T07:20:59;100720.0;;;18.7;71.5
52343;BME280;38277;51.972;4.624;2022-09-09T07:24:25;100730.0;;;18.8;71.0
52343;BME280;38277;51.972;4.624;2022-09-09T07:28:51;100730.0;;;18.8;70.5
52343;BME280;38277;51.972;4.624;2022-09-09T07:33:44;100720.0;;;18.8;70.0
52343;BME280;38277;51.972;4.624;2022-09-09T07:38:55;100720.0;;;18.8;70.5
52343;BME280;38277;51.972;4.624;2022-09-09T07:42:28;100730.0;;;18.8;70.0
52343;BME280;38277;51.972;4.624;2022-09-09T07:47:02;100730.0;;;18.6;70.5
52343;BME280;38277;51.972;4.624;2022-09-09T07:51:21;100730.0;;;18.6;71.0
52343;BME280;38277;51.972;4.624;2022-09-09T07:56:46;100730.0;;;18.6;70.5
52343;BME280;38277;51.972;4.624;2022-09-09T08:00:39;100730.0;;;18.5;71.0
52343;BME280;38277;51.972;4.624;2022-09-09T08:04:57;100740.0;;;18.5;71.0
52343;BME280;38277;51.972;4.624;2022-09-09T08:09:24;100740.0;;;18.5;71.0
52343;BME280;38277;51.972;4.624;2022-09-09T08:13:52;100730.0;;;18.6;71.0
52343;BME280;38277;51.972;4.624;2022-09-09T08:18:26;100730.0;;;18.7;70.5
52343;BME280;38277;51.972;4.624;2022-09-09T08:22:49;100730.0;;;18.7;71.0
52343;BME280;38277;51.972;4.624;2022-09-09T08:27:29;100730.0;;;18.7;71.0
52343;BME280;38277;51.972;4.624;2022-09-09T08:31:54;100730.0;;;18.7;71.0
52343;BME280;38277;51.972;4.624;2022-09-09T08:36:47;100730.0;;;18.8;71.0
52343;BME280;38277;51.972;4.624;2022-09-09T08:41:35;100740.0;;;18.8;70.5
52343;BME280;38277;51.972;4.624;2022-09-09T08:45:49;100730.0;;;18.8;70.0
52343;BME280;38277;51.972;4.624;2022-09-09T08:50:24;100750.0;;;18.8;70.0
52343;BME280;38277;51.972;4.624;2022-09-09T08:54:41;100740.0;;;18.8;70.5
52343;BME280;38277;51.972;4.624;2022-09-09T08:59:10;100740.0;;;18.7;71.5
52343;BME280;38277;51.972;4.624;2022-09-09T09:04:00;100760.0;;;18.7;72.0
52343;BME280;38277;51.972;4.624;2022-09-09T09:08:30;100760.0;;;18.6;73.0
52343;BME280;38277;51.972;4.624;2022-09-09T09:12:40;100760.0;;;18.6;73.0
52343;BME280;38277;51.972;4.624;2022-09-09T09:17:16;100760.0;;;18.6;73.0
52343;BME280;38277;51.972;4.624;2022-09-09T09:21:43;100770.0;;;18.6;73.5
52343;BME280;38277;51.972;4.624;2022-09-09T09:25:50;100760.0;;;18.6;73.5
52343;BME280;38277;51.972;4.624;2022-09-09T09:30:24;100760.0;;;18.6;74.0
52343;BME280;38277;51.972;4.624;2022-09-09T09:35:10;100760.0;;;18.7;73.5
52343;BME280;38277;51.972;4.624;2022-09-09T09:39:26;100750.0;;;18.8;73.5
52343;BME280;38277;51.972;4.624;2022-09-09T09:44:05;100750.0;;;18.9;73.5
52343;BME280;38277;51.972;4.624;2022-09-09T09:48:34;100740.0;;;19.0;73.5
52343;BME280;38277;51.972;4.624;2022-09-09T09:52:53;100730.0;;;19.2;73.5
52343;BME280;38277;51.972;4.624;2022-09-09T09:57:22;100740.0;;;19.8;72.0
52343;BME280;38277;51.972;4.624;2022-09-09T10:02:06;100740.0;;;20.3;69.5
52343;BME280;38277;51.972;4.624;2022-09-09T10:06:29;100730.0;;;20.4;67.5
52343;BME280;38277;51.972;4.624;2022-09-09T10:11:06;100730.0;;;20.4;67.0
52343;BME280;38277;51.972;4.624;2022-09-09T10:15:50;100740.0;;;20.4;67.0
52343;BME280;38277;51.972;4.624;2022-09-09T10:20:15;100730.0;;;20.4;68.0
52343;BME280;38277;51.972;4.624;2022-09-09T10:25:31;100740.0;;;20.4;68.0
52343;BME280;38277;51.972;4.624;2022-09-09T10:29:44;100730.0;;;20.3;69.0
52343;BME280;38277;51.972;4.624;2022-09-09T10:34:46;100740.0;;;20.3;69.0
52343;BME280;38277;51.972;4.624;2022-09-09T10:38:12;100740.0;;;20.3;68.5
52343;BME280;38277;51.972;4.624;2022-09-09T10:42:40;100740.0;;;20.3;69.0
52343;BME280;38277;51.972;4.624;2022-09-09T10:47:40;100740.0;;;20.4;68.5
52343;BME280;38277;51.972;4.624;2022-09-09T10:52:12;100730.0;;;20.4;67.5
52343;BME280;38277;51.972;4.624;2022-09-09T10:55:57;100740.0;;;20.1;68.5
52343;BME280;38277;51.972;4.624;2022-09-09T11:00:35;100740.0;;;19.9;70.0
52343;BME280;38277;51.972;4.624;2022-09-09T11:05:02;100730.0;;;19.7;70.5
52343;BME280;38277;51.972;4.624;2022-09-09T11:09:32;100720.0;;;19.8;71.5
52343;BME280;38277;51.972;4.624;2022-09-09T11:14:18;100730.0;;;20.1;71.0
52343;BME280;38277;51.972;4.624;2022-09-09T11:18:36;100730.0;;;20.4;69.0
52343;BME280;38277;51.972;4.624;2022-09-09T11:22:50;100730.0;;;20.5;68.5
52343;BME280;38277;51.972;4.624;2022-09-09T11:27:56;100730.0;;;20.7;67.5
52343;BME280;38277;51.972;4.624;2022-09-09T11:33:20;100730.0;;;21.0;66.5
52343;BME280;38277;51.972;4.624;2022-09-09T11:38:27;100740.0;;;21.5;66.0
52343;BME280;38277;51.972;4.624;2022-09-09T11:40:55;100730.0;;;21.9;64.0
52343;BME280;38277;51.972;4.624;2022-09-09T11:45:42;100730.0;;;21.7;63.0
52343;BME280;38277;51.972;4.624;2022-09-09T11:50:22;100740.0;;;21.2;64.0
52343;BME280;38277;51.972;4.624;2022-09-09T11:54:48;100740.0;;;20.6;67.0
52343;BME280;38277;51.972;4.624;2022-09-09T11:58:56;100730.0;;;20.1;69.5
52343;BME280;38277;51.972;4.624;2022-09-09T12:03:51;100730.0;;;19.8;71.0
52343;BME280;38277;51.972;4.624;2022-09-09T12:07:50;100730.0;;;19.7;72.0
52343;BME280;38277;51.972;4.624;2022-09-09T12:12:39;100730.0;;;19.6;73.0
52343;BME280;38277;51.972;4.624;2022-09-09T12:17:09;100720.0;;;19.3;73.5
52343;BME280;38277;51.972;4.624;2022-09-09T12:21:39;100730.0;;;19.2;75.0
52343;BME280;38277;51.972;4.624;2022-09-09T12:26:07;100740.0;;;18.9;76.0
52343;BME280;38277;51.972;4.624;2022-09-09T12:30:49;100750.0;;;18.6;77.5
52343;BME280;38277;51.972;4.624;2022-09-09T12:35:00;100750.0;;;18.4;79.0
52343;BME280;38277;51.972;4.624;2022-09-09T12:39:44;100750.0;;;18.6;81.0
52343;BME280;38277;51.972;4.624;2022-09-09T12:44:08;100750.0;;;18.7;81.0
52343;BME280;38277;51.972;4.624;2022-09-09T12:48:36;100760.0;;;18.7;80.0
52343;BME280;38277;51.972;4.624;2022-09-09T12:52:54;100750.0;;;18.5;80.5
52343;BME280;38277;51.972;4.624;2022-09-09T12:57:39;100760.0;;;18.5;81.0
52343;BME280;38277;51.972;4.624;2022-09-09T13:01:58;100750.0;;;18.4;81.5
52343;BME280;38277;51.972;4.624;2022-09-09T13:06:42;100750.0;;;18.5;81.5
52343;BME280;38277;51.972;4.624;2022-09-09T13:11:50;100760.0;;;18.5;81.5
52343;BME280;38277;51.972;4.624;2022-09-09T13:16:34;100760.0;;;18.4;81.5
52343;BME280;38277;51.972;4.624;2022-09-09T13:20:16;100750.0;;;18.5;82.0
52343;BME280;38277;51.972;4.624;2022-09-09T13:24:33;100750.0;;;18.5;81.5
52343;BME280;38277;51.972;4.624;2022-09-09T13:28:53;100760.0;;;18.9;83.0
52343;BME280;38277;51.972;4.624;2022-09-09T13:33:38;100770.0;;;20.6;79.5
52343;BME280;38277;51.972;4.624;2022-09-09T13:38:08;100760.0;;;21.5;73.0
52343;BME280;38277;51.972;4.624;2022-09-09T13:43:23;100760.0;;;22.2;70.0
52343;BME280;38277;51.972;4.624;2022-09-09T13:47:01;100770.0;;;22.2;66.5
52343;BME280;38277;51.972;4.624;2022-09-09T13:56:01;100770.0;;;21.1;68.5
52343;BME280;38277;51.972;4.624;2022-09-09T14:01:23;100760.0;;;20.5;71.0
52343;BME280;38277;51.972;4.624;2022-09-09T14:04:50;100760.0;;;19.6;73.5
52343;BME280;38277;51.972;4.624;2022-09-09T14:09:41;100760.0;;;18.9;76.5
52343;BME280;38277;51.972;4.624;2022-09-09T14:14:12;100770.0;;;18.5;79.5
52343;BME280;38277;51.972;4.624;2022-09-09T14:19:15;100760.0;;;18.2;81.0
52343;BME280;38277;51.972;4.624;2022-09-09T14:22:48;100750.0;;;18.1;82.5
52343;BME280;38277;51.972;4.624;2022-09-09T14:27:44;100760.0;;;18.1;83.5
52343;BME280;38277;51.972;4.624;2022-09-09T14:32:01;100770.0;;;18.2;84.5
52343;BME280;38277;51.972;4.624;2022-09-09T14:37:18;100760.0;;;18.3;85.0
52343;BME280;38277;51.972;4.624;2022-09-09T14:41:00;100770.0;;;18.5;84.5
52343;BME280;38277;51.972;4.624;2022-09-09T14:46:15;100770.0;;;18.7;85.0
52343;BME280;38277;51.972;4.624;2022-09-09T14:50:11;100780.0;;;18.9;83.5
52343;BME280;38277;51.972;4.624;2022-09-09T14:55:12;100770.0;;;19.4;83.5
52343;BME280;38277;51.972;4.624;2022-09-09T14:58:54;100760.0;;;20.8;79.0
52343;BME280;38277;51.972;4.624;2022-09-09T15:04:13;100780.0;;;22.2;73.5
52343;BME280;38277;51.972;4.624;2022-09-09T15:07:53;100760.0;;;24.3;67.5
52343;BME280;38277;51.972;4.624;2022-09-09T15:13:23;100760.0;;;25.9;59.0
52343;BME280;38277;51.972;4.624;2022-09-09T15:17:01;100780.0;;;26.4;57.0
52343;BME280;38277;51.972;4.624;2022-09-09T15:21:45;100770.0;;;27.1;52.0
52343;BME280;38277;51.972;4.624;2022-09-09T15:26:15;100770.0;;;27.3;53.5
52343;BME280;38277;51.972;4.624;2022-09-09T15:31:27;100780.0;;;28.0;53.0
52343;BME280;38277;51.972;4.624;2022-09-09T15:35:11;100780.0;;;28.4;50.0
52343;BME280;38277;51.972;4.624;2022-09-09T15:39:27;100770.0;;;28.1;48.5
52343;BME280;38277;51.972;4.624;2022-09-09T15:43:51;100770.0;;;27.0;50.5
52343;BME280;38277;51.972;4.624;2022-09-09T15:49:27;100780.0;;;25.6;51.5
52343;BME280;38277;51.972;4.624;2022-09-09T15:53:06;100770.0;;;24.3;55.5
52343;BME280;38277;51.972;4.624;2022-09-09T15:57:43;100760.0;;;23.4;58.5
52343;BME280;38277;51.972;4.624;2022-09-09T16:02:09;100770.0;;;22.8;61.0
52343;BME280;38277;51.972;4.624;2022-09-09T16:07:13;100780.0;;;22.2;62.5
52343;BME280;38277;51.972;4.624;2022-09-09T16:11:16;100780.0;;;21.7;64.0
52343;BME280;38277;51.972;4.624;2022-09-09T16:15:27;100780.0;;;21.2;66.5
52343;BME280;38277;51.972;4.624;2022-09-09T16:19:51;100790.0;;;20.8;67.5
52343;BME280;38277;51.972;4.624;2022-09-09T16:25:28;100790.0;;;20.5;68.5
52343;BME280;38277;51.972;4.624;2022-09-09T16:28:47;100790.0;;;20.3;70.0
52343;BME280;38277;51.972;4.624;2022-09-09T16:38:00;100800.0;;;20.3;72.0
52343;BME280;38277;51.972;4.624;2022-09-09T16:43:20;100810.0;;;20.2;72.5
52343;BME280;38277;51.972;4.624;2022-09-09T16:47:05;100810.0;;;20.2;72.5
52343;BME280;38277;51.972;4.624;2022-09-09T16:52:53;100810.0;;;20.0;71.5
52343;BME280;38277;51.972;4.624;2022-09-09T16:56:17;100820.0;;;19.9;71.5
52343;BME280;38277;51.972;4.624;2022-09-09T17:01:10;100820.0;;;19.8;72.0
52343;BME280;38277;51.972;4.624;2022-09-09T17:04:58;100820.0;;;19.8;72.0
52343;BME280;38277;51.972;4.624;2022-09-09T17:09:17;100820.0;;;19.7;72.5
52343;BME280;38277;51.972;4.624;2022-09-09T17:14:08;100830.0;;;19.6;72.5
52343;BME280;38277;51.972;4.624;2022-09-09T17:19:25;100840.0;;;19.5;73.0
52343;BME280;38277;51.972;4.624;2022-09-09T17:22:51;100830.0;;;19.4;74.0
52343;BME280;38277;51.972;4.624;2022-09-09T17:28:27;100850.0;;;19.3;74.5
52343;BME280;38277;51.972;4.624;2022-09-09T17:31:47;100850.0;;;19.2;75.0
52343;BME280;38277;51.972;4.624;2022-09-09T17:37:02;100850.0;;;19.2;75.5
52343;BME280;38277;51.972;4.624;2022-09-09T17:41:03;100860.0;;;19.1;76.0
52343;BME280;38277;51.972;4.624;2022-09-09T17:45:16;100860.0;;;19.1;76.0
52343;BME280;38277;51.972;4.624;2022-09-09T17:50:03;100870.0;;;19.0;76.0
52343;BME280;38277;51.972;4.624;2022-09-09T17:55:22;100870.0;;;19.0;76.5
52343;BME280;38277;51.972;4.624;2022-09-09T17:59:14;100880.0;;;19.1;76.5
52343;BME280;38277;51.972;4.624;2022-09-09T18:03:20;100890.0;;;19.0;76.5
52343;BME280;38277;51.972;4.624;2022-09-09T18:08:04;100890.0;;;18.9;77.0
52343;BME280;38277;51.972;4.624;2022-09-09T18:13:18;100900.0;;;18.8;77.0
52343;BME280;38277;51.972;4.624;2022-09-09T18:17:56;100900.0;;;18.7;78.0
52343;BME280;38277;51.972;4.624;2022-09-09T18:21:18;100900.0;;;18.6;78.5
52343;BME280;38277;51.972;4.624;2022-09-09T18:25:51;100910.0;;;18.5;79.0
52343;BME280;38277;51.972;4.624;2022-09-09T18:34:57;100910.0;;;18.5;79.5
52343;BME280;38277;51.972;4.624;2022-09-09T18:40:25;100910.0;;;18.4;80.0
52343;BME280;38277;51.972;4.624;2022-09-09T18:44:03;100910.0;;;18.4;80.0
52343;BME280;38277;51.972;4.624;2022-09-09T18:49:23;100910.0;;;18.3;80.0
52343;BME280;38277;51.972;4.624;2022-09-09T18:53:03;100910.0;;;18.3;80.5
52343;BME280;38277;51.972;4.624;2022-09-09T18:57:17;100920.0;;;18.3;80.5
52343;BME280;38277;51.972;4.624;2022-09-09T19:02:11;100920.0;;;18.3;80.0
52343;BME280;38277;51.972;4.624;2022-09-09T19:07:15;100920.0;;;18.2;80.0
52343;BME280;38277;51.972;4.624;2022-09-09T19:11:16;100940.0;;;18.2;80.0
52343;BME280;38277;51.972;4.624;2022-09-09T19:15:41;100930.0;;;18.2;79.5
52343;BME280;38277;51.972;4.624;2022-09-09T19:19:55;100940.0;;;18.2;80.0
52343;BME280;38277;51.972;4.624;2022-09-09T19:25:07;100930.0;;;18.2;80.0
52343;BME280;38277;51.972;4.624;2022-09-09T19:29:17;100940.0;;;18.2;80.0
52343;BME280;38277;51.972;4.624;2022-09-09T19:33:16;100950.0;;;18.2;80.0
52343;BME280;38277;51.972;4.624;2022-09-09T19:38:10;100970.0;;;18.1;80.0
52343;BME280;38277;51.972;4.624;2022-09-09T19:43:26;100960.0;;;18.1;80.5
52343;BME280;38277;51.972;4.624;2022-09-09T19:47:09;100960.0;;;18.0;81.0
52343;BME280;38277;51.972;4.624;2022-09-09T19:51:19;100970.0;;;18.0;81.5
52343;BME280;38277;51.972;4.624;2022-09-09T19:55:55;100980.0;;;17.9;82.0
52343;BME280;38277;51.972;4.624;2022-09-09T20:01:09;100970.0;;;17.9;82.5
52343;BME280;38277;51.972;4.624;2022-09-09T20:05:12;100980.0;;;17.9;82.5
52343;BME280;38277;51.972;4.624;2022-09-09T20:09:20;100980.0;;;17.9;83.0
52343;BME280;38277;51.972;4.624;2022-09-09T20:13:54;100980.0;;;17.9;83.5
52343;BME280;38277;51.972;4.624;2022-09-09T20:19:10;100980.0;;;17.9;83.5
52343;BME280;38277;51.972;4.624;2022-09-09T20:23:07;100990.0;;;17.9;83.5
52343;BME280;38277;51.972;4.624;2022-09-09T20:27:40;100990.0;;;17.8;83.5
52343;BME280;38277;51.972;4.624;2022-09-09T20:31:53;100990.0;;;17.8;84.0
52343;BME280;38277;51.972;4.624;2022-09-09T20:37:27;100990.0;;;17.7;84.0
52343;BME280;38277;51.972;4.624;2022-09-09T20:41:00;100990.0;;;17.7;84.0
52343;BME280;38277;51.972;4.624;2022-09-09T20:45:20;101010.0;;;17.7;84.5
52343;BME280;38277;51.972;4.624;2022-09-09T20:49:51;101000.0;;;17.8;84.5
52343;BME280;38277;51.972;4.624;2022-09-09T20:55:29;101010.0;;;17.8;84.5
52343;BME280;38277;51.972;4.624;2022-09-09T20:59:13;100990.0;;;17.8;84.5
52343;BME280;38277;51.972;4.624;2022-09-09T21:03:43;100990.0;;;17.8;84.0
52343;BME280;38277;51.972;4.624;2022-09-09T21:07:56;100990.0;;;17.8;84.0
52343;BME280;38277;51.972;4.624;2022-09-09T21:13:01;100980.0;;;17.8;83.5
52343;BME280;38277;51.972;4.624;2022-09-09T21:17:08;100980.0;;;17.7;83.0
52343;BME280;38277;51.972;4.624;2022-09-09T21:22:07;100980.0;;;17.6;82.5
52343;BME280;38277;51.972;4.624;2022-09-09T21:26:03;100980.0;;;17.5;82.5
52343;BME280;38277;51.972;4.624;2022-09-09T21:31:28;100980.0;;;17.5;83.0
52343;BME280;38277;51.972;4.624;2022-09-09T21:35:09;100980.0;;;17.4;83.5
52343;BME280;38277;51.972;4.624;2022-09-09T21:44:09;100990.0;;;17.4;85.0
52343;BME280;38277;51.972;4.624;2022-09-09T21:49:31;100990.0;;;17.5;85.5
52343;BME280;38277;51.972;4.624;2022-09-09T21:52:53;100980.0;;;17.5;86.0
52343;BME280;38277;51.972;4.624;2022-09-09T21:57:22;100980.0;;;17.4;86.5
52343;BME280;38277;51.972;4.624;2022-09-09T22:07:22;100980.0;;;17.4;87.0
52343;BME280;38277;51.972;4.624;2022-09-09T22:11:07;100970.0;;;17.4;87.5
52343;BME280;38277;51.972;4.624;2022-09-09T22:15:44;100970.0;;;17.4;88.0
52343;BME280;38277;51.972;4.624;2022-09-09T22:20:12;100970.0;;;17.3;88.0
52343;BME280;38277;51.972;4.624;2022-09-09T22:25:16;100990.0;;;17.3;88.5
52343;BME280;38277;51.972;4.624;2022-09-09T22:29:15;101000.0;;;17.4;88.5
52343;BME280;38277;51.972;4.624;2022-09-09T22:33:28;101000.0;;;17.4;89.0
52343;BME280;38277;51.972;4.624;2022-09-09T22:38:01;101000.0;;;17.3;89.0
52343;BME280;38277;51.972;4.624;2022-09-09T22:43:07;101000.0;;;17.3;89.5
52343;BME280;38277;51.972;4.624;2022-09-09T22:46:46;101010.0;;;17.3;89.5
52343;BME280;38277;51.972;4.624;2022-09-09T22:52:27;101020.0;;;17.3;89.5
52343;BME280;38277;51.972;4.624;2022-09-09T22:56:12;101010.0;;;17.3;90.0
52343;BME280;38277;51.972;4.624;2022-09-09T23:01:25;101020.0;;;17.3;90.0
52343;BME280;38277;51.972;4.624;2022-09-09T23:05:06;101020.0;;;17.3;90.0
52343;BME280;38277;51.972;4.624;2022-09-09T23:13:54;101010.0;;;17.3;90.5
52343;BME280;38277;51.972;4.624;2022-09-09T23:19:26;101010.0;;;17.3;90.5
52343;BME280;38277;51.972;4.624;2022-09-09T23:22:51;101010.0;;;17.3;90.5
52343;BME280;38277;51.972;4.624;2022-09-09T23:27:48;101010.0;;;17.3;90.5
52343;BME280;38277;51.972;4.624;2022-09-09T23:32:00;101000.0;;;17.2;90.5
52343;BME280;38277;51.972;4.624;2022-09-09T23:37:15;101000.0;;;17.2;90.5
52343;BME280;38277;51.972;4.624;2022-09-09T23:41:18;101000.0;;;17.2;90.5
52343;BME280;38277;51.972;4.624;2022-09-09T23:50:15;101000.0;;;17.2;90.5
52343;BME280;38277;51.972;4.624;2022-09-09T23:55:29;100990.0;;;17.1;90.5
52343;BME280;38277;51.972;4.624;2022-09-09T23:58:57;100980.0;;;17.1;90.5
